Time;durP1;ratioP1;P1;durP2;ratioP2;P2;SDS_P1;SDS_P2;PMS_P1;PMS_P2;Temp;Humidity;BMP_temperature;BMP_pressure;BME280_temperature;BME280_humidity;BME280_pressure;Samples;Min_cycle;Max_cycle;Signal;HPM_P1;HPM_P2
2023/09/24 00:00:41;;;;;;;4.15;1.23;;;;;;;20.80;49.13;102226.63;5048329;28;20051;-70
2023/09/24 00:03:07;;;;;;;3.38;1.20;;;;;;;20.78;49.09;102220.63;5047396;28;20119;-70
2023/09/24 00:05:38;;;;;;;5.30;1.57;;;;;;;20.79;49.23;102222.28;5048439;28;20091;-70
2023/09/24 00:08:04;;;;;;;4.85;1.52;;;;;;;20.78;49.35;102225.91;5047581;28;20258;-70
2023/09/24 00:10:30;;;;;;;3.35;1.05;;;;;;;20.79;49.28;102230.22;5047300;28;20029;-69
2023/09/24 00:12:56;;;;;;;3.83;1.25;;;;;;;20.76;49.03;102231.31;5047742;28;20032;-68
2023/09/24 00:15:21;;;;;;;3.10;1.30;;;;;;;20.78;49.16;102231.22;5047789;28;20340;-68
2023/09/24 00:17:47;;;;;;;3.95;1.38;;;;;;;20.78;49.02;102241.81;5047556;28;20044;-68
2023/09/24 00:20:15;;;;;;;3.90;1.45;;;;;;;20.77;49.01;102235.63;5028953;28;20044;-68
2023/09/24 00:22:41;;;;;;;3.10;1.20;;;;;;;20.76;49.05;102238.41;5048969;28;20055;-69
2023/09/24 00:25:06;;;;;;;3.13;1.30;;;;;;;20.76;48.87;102244.56;5067698;28;20060;-71
2023/09/24 00:27:31;;;;;;;3.42;1.40;;;;;;;20.76;49.00;102235.75;5056347;28;20024;-71
2023/09/24 00:29:57;;;;;;;4.63;2.10;;;;;;;20.76;49.01;102244.56;5043582;28;20028;-69
2023/09/24 00:32:22;;;;;;;4.80;2.40;;;;;;;20.76;49.11;102243.69;5063881;28;20112;-68
2023/09/24 00:34:48;;;;;;;5.15;2.10;;;;;;;20.75;48.99;102244.66;5046695;28;20436;-69
2023/09/24 00:37:13;;;;;;;3.23;1.90;;;;;;;20.75;49.04;102250.81;5048271;28;20135;-68
2023/09/24 00:39:39;;;;;;;4.60;2.22;;;;;;;20.74;48.82;102245.63;5067668;28;20354;-70
2023/09/24 00:42:06;;;;;;;5.40;2.25;;;;;;;20.75;48.77;102256.09;5067429;28;20082;-71
2023/09/24 00:44:31;;;;;;;4.70;1.67;;;;;;;20.73;48.93;102251.84;5067499;28;20530;-69
2023/09/24 00:46:56;;;;;;;3.45;1.50;;;;;;;20.73;48.93;102254.50;5067371;28;20028;-69
2023/09/24 00:49:22;;;;;;;3.50;1.70;;;;;;;20.73;48.77;102254.50;5066431;28;20086;-70
2023/09/24 00:51:48;;;;;;;2.90;1.40;;;;;;;20.73;48.79;102271.28;5067281;28;20051;-71
2023/09/24 00:54:14;;;;;;;3.85;1.40;;;;;;;20.71;48.73;102265.25;5066939;28;20040;-69
2023/09/24 00:56:40;;;;;;;4.32;1.60;;;;;;;20.70;48.74;102263.53;5067546;28;20086;-68
2023/09/24 00:59:06;;;;;;;4.18;1.80;;;;;;;20.71;48.58;102261.72;5066709;28;20087;-71
2023/09/24 01:01:31;;;;;;;3.67;1.60;;;;;;;20.71;48.54;102265.25;5066914;28;20511;-70
2023/09/24 01:03:57;;;;;;;3.33;1.52;;;;;;;20.70;48.66;102254.75;5067062;28;20032;-69
2023/09/24 01:06:23;;;;;;;4.18;1.42;;;;;;;20.70;48.66;102252.09;5066730;28;20115;-69
2023/09/24 01:08:48;;;;;;;3.83;1.77;;;;;;;20.68;48.64;102254.00;5066814;28;20032;-67
2023/09/24 01:11:14;;;;;;;2.63;1.30;;;;;;;20.69;48.48;102251.22;5049123;28;20024;-69
2023/09/24 01:13:42;;;;;;;3.72;1.70;;;;;;;20.68;48.87;102254.00;5066829;28;20063;-67
2023/09/24 01:16:08;;;;;;;3.10;1.40;;;;;;;20.67;48.67;102257.63;5066556;28;20377;-68
2023/09/24 01:18:37;;;;;;;3.80;1.63;;;;;;;20.68;48.64;102256.63;5066601;28;20033;-67
2023/09/24 01:21:07;;;;;;;3.47;1.77;;;;;;;20.68;48.50;102254.00;5046473;28;20037;-69
2023/09/24 01:23:35;;;;;;;3.63;1.80;;;;;;;20.68;48.53;102259.28;5046439;28;20115;-68
2023/09/24 01:26:01;;;;;;;3.22;1.58;;;;;;;20.66;48.62;102256.75;5044701;28;20078;-70
2023/09/24 01:28:27;;;;;;;2.65;1.25;;;;;;;20.65;48.61;102263.84;5044744;28;20025;-70
2023/09/24 01:30:52;;;;;;;4.35;1.80;;;;;;;20.62;48.23;102253.44;5045179;28;20087;-69
2023/09/24 01:33:19;;;;;;;3.87;1.40;;;;;;;20.65;48.21;102265.66;5045696;28;20460;-68
2023/09/24 01:35:45;;;;;;;4.50;1.60;;;;;;;20.64;48.68;102262.16;5046231;28;20288;-70
2023/09/24 01:38:11;;;;;;;3.95;1.70;;;;;;;20.62;48.57;102264.03;5046487;28;20124;-70
2023/09/24 01:40:37;;;;;;;5.53;1.60;;;;;;;20.63;48.23;102255.16;5046414;28;20123;-68
2023/09/24 01:43:05;;;;;;;3.95;1.70;;;;;;;20.61;48.21;102248.25;5029277;28;20110;-69
2023/09/24 01:45:34;;;;;;;4.68;1.80;;;;;;;20.64;48.45;102258.66;5026481;28;20116;-69
2023/09/24 01:48:03;;;;;;;3.90;1.70;;;;;;;20.62;48.22;102250.78;5005399;28;20034;-69
2023/09/24 01:50:32;;;;;;;2.83;1.40;;;;;;;20.61;48.37;102249.09;5046201;28;20036;-68
2023/09/24 01:52:59;;;;;;;4.07;1.67;;;;;;;20.60;48.37;102252.72;5046251;28;20084;-69
2023/09/24 01:55:27;;;;;;;3.22;1.50;;;;;;;20.62;48.14;102257.91;5045661;28;20075;-69
2023/09/24 01:57:54;;;;;;;3.97;1.70;;;;;;;20.61;48.36;102257.03;5045655;28;20033;-70
2023/09/24 02:00:26;;;;;;;3.92;1.70;;;;;;;20.60;48.03;102255.34;5045571;28;20033;-68
2023/09/24 02:02:52;;;;;;;6.35;1.92;;;;;;;20.58;48.07;102251.94;5025588;28;20033;-70
2023/09/24 02:05:19;;;;;;;3.78;1.52;;;;;;;20.61;48.04;102256.19;5025804;28;20030;-70
2023/09/24 02:07:45;;;;;;;3.65;1.60;;;;;;;20.62;48.03;102248.13;5025050;28;20426;-69
2023/09/24 02:10:14;;;;;;;3.78;1.65;;;;;;;20.60;48.03;102255.34;5025763;28;20044;-67
2023/09/24 02:12:39;;;;;;;3.85;1.77;;;;;;;20.59;48.21;102253.66;5026102;28;20033;-68
2023/09/24 02:15:09;;;;;;;4.15;1.98;;;;;;;20.59;48.19;102258.09;5025374;28;20083;-68
2023/09/24 02:17:35;;;;;;;2.83;1.50;;;;;;;20.59;47.94;102256.28;5025292;28;20040;-67
2023/09/24 02:20:08;;;;;;;3.28;1.58;;;;;;;20.57;48.17;102262.66;5025747;28;20033;-68
2023/09/24 02:22:33;;;;;;;3.83;1.73;;;;;;;20.57;47.89;102265.28;5004823;28;20387;-68
2023/09/24 02:24:59;;;;;;;4.63;1.80;;;;;;;20.57;47.99;102273.25;5021020;28;20021;-67
2023/09/24 02:27:25;;;;;;;3.55;1.75;;;;;;;20.55;47.75;102276.00;5026700;28;20044;-69
2023/09/24 02:29:52;;;;;;;3.30;1.70;;;;;;;20.56;47.88;102283.00;5045234;28;20029;-68
2023/09/24 02:32:17;;;;;;;3.20;1.58;;;;;;;20.56;47.76;102279.50;5045708;28;20040;-70
2023/09/24 02:34:44;;;;;;;4.07;1.73;;;;;;;20.56;47.84;102279.50;5045265;28;20033;-68
2023/09/24 02:37:10;;;;;;;4.07;1.90;;;;;;;20.53;47.85;102275.25;5045398;28;20029;-68
2023/09/24 02:39:35;;;;;;;4.03;1.77;;;;;;;20.54;47.84;102282.25;5045792;28;20040;-69
2023/09/24 02:42:01;;;;;;;4.18;1.60;;;;;;;20.52;47.77;102278.00;5054424;28;20152;-67
2023/09/24 02:44:26;;;;;;;5.78;1.90;;;;;;;20.55;47.62;102283.09;5057287;28;20025;-70
2023/09/24 02:46:51;;;;;;;3.90;1.67;;;;;;;20.55;47.69;102277.81;5068842;28;20078;-70
2023/09/24 02:49:17;;;;;;;4.90;1.80;;;;;;;20.55;47.77;102286.59;5069801;28;20024;-70
2023/09/24 02:51:43;;;;;;;3.50;1.70;;;;;;;20.53;47.70;102279.72;5069516;28;20396;-69
2023/09/24 02:54:08;;;;;;;2.78;1.50;;;;;;;20.53;47.64;102279.72;5069276;28;20029;-68
2023/09/24 02:56:34;;;;;;;4.15;1.70;;;;;;;20.53;47.62;102280.56;5032561;28;20842;-69
2023/09/24 02:58:59;;;;;;;4.47;1.80;;;;;;;20.54;47.88;102282.25;5044742;28;20044;-69
2023/09/24 03:01:25;;;;;;;3.80;1.92;;;;;;;20.53;47.63;102277.06;5031093;28;20355;-68
2023/09/24 03:03:50;;;;;;;3.22;1.65;;;;;;;20.50;47.40;102279.94;5048986;28;20531;-70
2023/09/24 03:06:16;;;;;;;5.93;1.90;;;;;;;20.51;47.37;102271.88;5048968;28;20032;-70
2023/09/24 03:08:42;;;;;;;3.47;1.48;;;;;;;20.51;47.55;102285.13;5049261;28;20029;-70
2023/09/24 03:11:16;;;;;;;3.78;1.67;;;;;;;20.48;47.35;102277.38;5049577;28;20021;-70
2023/09/24 03:13:41;;;;;;;3.47;1.60;;;;;;;20.50;47.42;102285.22;5049083;28;20028;-68
2023/09/24 03:16:07;;;;;;;4.20;1.85;;;;;;;20.51;47.43;102293.06;5048919;28;20052;-68
2023/09/24 03:18:33;;;;;;;4.05;1.85;;;;;;;20.48;47.59;102287.97;5049280;28;20047;-68
2023/09/24 03:20:58;;;;;;;4.35;1.58;;;;;;;20.50;47.39;102288.72;5049311;28;20036;-69
2023/09/24 03:23:24;;;;;;;6.32;2.05;;;;;;;20.47;47.43;102287.13;5049141;28;20025;-70
2023/09/24 03:25:49;;;;;;;4.13;1.90;;;;;;;20.46;47.39;102287.25;5048084;28;20465;-67
2023/09/24 03:28:15;;;;;;;3.53;1.70;;;;;;;20.46;47.41;102288.09;5049244;28;20043;-70
2023/09/24 03:30:40;;;;;;;4.80;1.85;;;;;;;20.45;47.52;102296.13;5049082;28;20075;-69
2023/09/24 03:33:06;;;;;;;3.75;1.73;;;;;;;20.46;47.35;102301.31;5049064;28;20120;-69
2023/09/24 03:35:31;;;;;;;3.95;1.70;;;;;;;20.45;47.25;102296.97;5048226;28;20119;-69
2023/09/24 03:37:56;;;;;;;4.07;1.77;;;;;;;20.45;47.18;102294.31;5049239;28;20029;-68
2023/09/24 03:40:27;;;;;;;5.10;1.98;;;;;;;20.43;47.42;102298.88;5048610;28;20397;-67
2023/09/24 03:42:52;;;;;;;3.55;1.50;;;;;;;20.44;47.42;102305.88;5033098;28;20054;-69
2023/09/24 03:45:20;;;;;;;3.25;1.40;;;;;;;20.42;47.34;102313.06;5028801;28;20549;-69
2023/09/24 03:47:46;;;;;;;4.10;1.67;;;;;;;20.43;47.32;102312.13;5028628;28;20029;-69
2023/09/24 03:50:14;;;;;;;3.83;1.50;;;;;;;20.43;47.03;102317.41;5028683;28;20029;-69
2023/09/24 03:52:40;;;;;;;3.60;1.70;;;;;;;20.42;47.17;102315.72;5028216;28;20033;-70
2023/09/24 03:55:06;;;;;;;4.57;1.90;;;;;;;20.44;47.23;102312.97;5028283;28;20034;-70
2023/09/24 03:57:31;;;;;;;5.10;1.90;;;;;;;20.44;47.14;102315.59;5027152;28;20041;-70
2023/09/24 03:59:57;;;;;;;3.72;1.48;;;;;;;20.41;47.08;102310.53;5028491;28;20043;-69
2023/09/24 04:02:24;;;;;;;3.75;1.60;;;;;;;20.42;47.09;102318.34;5028473;28;20486;-69
2023/09/24 04:04:49;;;;;;;3.28;1.60;;;;;;;20.42;47.02;102318.34;5028311;28;20029;-69
2023/09/24 04:07:18;;;;;;;4.05;1.83;;;;;;;20.41;47.15;102316.69;5028185;28;20025;-69
2023/09/24 04:09:44;;;;;;;3.80;1.65;;;;;;;20.42;47.23;102322.81;5028192;28;20064;-68
2023/09/24 04:12:10;;;;;;;3.13;1.42;;;;;;;20.41;46.71;102318.47;5027975;28;20114;-69
2023/09/24 04:14:36;;;;;;;2.70;1.40;;;;;;;20.41;46.89;102321.09;5026157;28;20041;-69
2023/09/24 04:17:02;;;;;;;2.92;1.35;;;;;;;20.41;46.93;102323.75;5025728;28;20038;-69
2023/09/24 04:19:29;;;;;;;5.55;1.65;;;;;;;20.40;46.92;102324.72;5047456;28;20033;-69
2023/09/24 04:21:54;;;;;;;4.10;1.80;;;;;;;20.40;46.96;102324.72;5029782;28;20780;-69
2023/09/24 04:24:23;;;;;;;3.88;1.25;;;;;;;20.36;47.10;102323.22;5047072;28;20029;-71
2023/09/24 04:26:48;;;;;;;4.43;1.63;;;;;;;20.37;46.98;102328.41;5047440;28;20032;-71
2023/09/24 04:29:15;;;;;;;4.03;1.63;;;;;;;20.38;46.98;102331.94;5047202;28;20362;-69
2023/09/24 04:31:42;;;;;;;3.67;1.60;;;;;;;20.36;46.67;102328.53;5026896;28;20033;-69
2023/09/24 04:34:09;;;;;;;4.55;1.42;;;;;;;20.37;46.85;102332.88;5027677;28;20108;-68
2023/09/24 04:36:34;;;;;;;3.78;1.40;;;;;;;20.35;46.85;102330.34;5027417;28;20033;-68
2023/09/24 04:38:59;;;;;;;6.55;1.90;;;;;;;20.36;46.80;102332.03;5027219;28;20112;-68
2023/09/24 04:41:25;;;;;;;4.00;1.50;;;;;;;20.35;46.82;102337.44;5031017;28;20049;-70
2023/09/24 04:43:50;;;;;;;3.35;1.58;;;;;;;20.37;46.73;102332.88;5047681;28;20036;-69
2023/09/24 04:46:15;;;;;;;4.25;1.50;;;;;;;20.35;46.94;102335.63;5047887;28;20115;-70
2023/09/24 04:48:40;;;;;;;3.42;1.67;;;;;;;20.37;46.83;102332.88;5047868;28;20033;-68
2023/09/24 04:51:06;;;;;;;4.00;1.55;;;;;;;20.36;46.84;102333.81;5047369;28;20531;-66
2023/09/24 04:53:31;;;;;;;4.07;1.50;;;;;;;20.36;47.08;102333.81;5046956;28;20035;-70
2023/09/24 04:56:00;;;;;;;3.40;1.45;;;;;;;20.36;46.81;102339.13;5046798;28;20060;-68
2023/09/24 04:58:25;;;;;;;3.88;1.50;;;;;;;20.33;47.08;102329.59;5047504;28;20040;-67
2023/09/24 05:00:51;;;;;;;4.25;1.45;;;;;;;20.34;46.77;102331.28;5045307;28;20033;-68
2023/09/24 05:03:16;;;;;;;3.75;1.58;;;;;;;20.34;47.43;102336.56;5047004;28;20431;-70
2023/09/24 05:05:44;;;;;;;4.82;1.70;;;;;;;20.34;47.18;102338.38;5046326;28;20091;-70
2023/09/24 05:08:10;;;;;;;3.65;1.50;;;;;;;20.33;47.29;102329.59;5046321;28;20025;-68
2023/09/24 05:10:39;;;;;;;3.53;1.33;;;;;;;20.33;47.39;102340.19;5045626;28;20055;-67
2023/09/24 05:13:05;;;;;;;3.83;1.45;;;;;;;20.36;47.59;102339.97;5028466;28;20033;-68
2023/09/24 05:15:30;;;;;;;4.78;1.50;;;;;;;20.37;47.67;102343.47;5046182;28;20436;-66
2023/09/24 05:17:56;;;;;;;3.53;1.52;;;;;;;20.43;47.79;102338.59;5045547;28;20029;-66
2023/09/24 05:20:22;;;;;;;4.32;1.63;;;;;;;20.44;48.08;102344.75;5045745;28;20098;-69
2023/09/24 05:22:47;;;;;;;4.28;1.58;;;;;;;20.43;47.96;102348.34;5046161;28;20048;-67
2023/09/24 05:25:13;;;;;;;5.10;1.50;;;;;;;20.43;48.23;102353.66;5045956;28;20083;-68
2023/09/24 05:27:38;;;;;;;3.22;1.50;;;;;;;20.39;48.18;102349.50;5039229;28;20071;-69
2023/09/24 05:30:05;;;;;;;4.63;1.58;;;;;;;20.39;47.85;102357.44;5062733;28;20349;-68
2023/09/24 05:32:33;;;;;;;3.08;1.38;;;;;;;20.39;48.44;102365.38;5065916;28;20440;-67
2023/09/24 05:34:58;;;;;;;4.10;1.40;;;;;;;20.37;48.50;102359.34;5066308;28;20036;-67
2023/09/24 05:37:24;;;;;;;4.57;1.33;;;;;;;20.39;48.50;102368.03;5060629;28;20033;-68
2023/09/24 05:39:49;;;;;;;4.40;1.63;;;;;;;20.38;48.72;102369.84;5045945;28;20039;-67
2023/09/24 05:42:16;;;;;;;5.75;1.70;;;;;;;20.40;48.81;102378.53;5045237;28;20074;-65
2023/09/24 05:44:41;;;;;;;4.43;1.58;;;;;;;20.39;48.43;102379.47;5045426;28;20036;-67
2023/09/24 05:47:07;;;;;;;4.93;1.63;;;;;;;20.40;48.85;102388.28;5053706;28;20067;-65
2023/09/24 05:49:32;;;;;;;4.07;1.70;;;;;;;20.38;48.78;102375.13;5065151;28;20388;-65
2023/09/24 05:51:58;;;;;;;5.05;1.70;;;;;;;20.38;48.58;102379.59;5064774;28;20122;-64
2023/09/24 05:54:23;;;;;;;4.65;1.60;;;;;;;20.40;48.86;102388.28;5047219;28;20523;-65
2023/09/24 05:56:49;;;;;;;3.67;1.52;;;;;;;20.39;48.71;102391.88;5064749;28;20064;-67
2023/09/24 05:59:14;;;;;;;7.85;1.80;;;;;;;20.39;48.84;102400.66;5057627;28;20037;-65
2023/09/24 06:01:39;;;;;;;4.13;1.60;;;;;;;20.39;48.63;102395.34;5045112;28;20048;-63
2023/09/24 06:04:05;;;;;;;4.18;1.60;;;;;;;20.37;48.72;102396.44;5045719;28;20155;-66
2023/09/24 06:06:30;;;;;;;5.40;1.70;;;;;;;20.37;48.60;102396.44;5044281;28;20045;-66
2023/09/24 06:08:55;;;;;;;4.50;1.88;;;;;;;20.37;48.76;102394.63;5045686;28;20029;-65
2023/09/24 06:11:21;;;;;;;3.97;1.45;;;;;;;20.38;48.71;102395.47;5047493;28;20045;-66
2023/09/24 06:13:46;;;;;;;3.20;1.40;;;;;;;20.34;48.54;102389.53;5065463;28;20119;-66
2023/09/24 06:16:12;;;;;;;5.15;1.63;;;;;;;20.37;48.47;102394.63;5064892;28;20118;-69
2023/09/24 06:18:41;;;;;;;5.78;1.50;;;;;;;20.33;48.82;102395.78;5066227;28;20103;-65
2023/09/24 06:21:09;;;;;;;4.63;1.73;;;;;;;20.35;48.82;102400.97;5067056;28;20110;-66
2023/09/24 06:23:34;;;;;;;3.78;1.52;;;;;;;20.36;48.70;102407.94;5051443;28;20047;-65
2023/09/24 06:26:00;;;;;;;3.28;1.40;;;;;;;20.37;48.77;102402.56;5068387;28;20024;-65
2023/09/24 06:28:26;;;;;;;3.75;1.40;;;;;;;20.37;48.92;102405.22;5050272;28;20063;-67
2023/09/24 06:31:04;;;;;;;5.20;1.80;;;;;;;20.36;48.82;102397.38;5049988;28;20399;-66
2023/09/24 06:33:30;;;;;;;4.18;1.80;;;;;;;20.40;48.98;102406.81;5048795;28;20049;-67
2023/09/24 06:35:56;;;;;;;4.68;1.58;;;;;;;20.39;48.80;102411.25;5050420;28;20055;-66
2023/09/24 06:38:22;;;;;;;5.43;1.60;;;;;;;20.37;49.04;102409.66;5065413;28;20045;-66
2023/09/24 06:40:58;;;;;;;8.48;1.30;;;;;;;20.37;49.18;102407.00;5074460;28;20036;-66
2023/09/24 06:43:25;;;;;;;5.10;1.67;;;;;;;20.36;48.83;102410.59;5067505;28;20052;-66
2023/09/24 06:45:52;;;;;;;5.45;1.60;;;;;;;20.36;48.84;102414.13;5048939;28;20036;-70
2023/09/24 06:48:17;;;;;;;4.28;1.48;;;;;;;20.36;49.00;102419.41;5049290;28;20040;-65
2023/09/24 06:50:43;;;;;;;3.83;1.40;;;;;;;20.37;48.92;102415.78;5049264;28;20033;-68
2023/09/24 06:53:08;;;;;;;5.10;1.60;;;;;;;20.38;48.89;102424.63;5049527;28;20037;-70
2023/09/24 06:55:33;;;;;;;4.15;1.60;;;;;;;20.36;48.61;102423.84;5049462;28;20596;-68
2023/09/24 06:57:59;;;;;;;4.43;1.77;;;;;;;20.36;48.97;102424.72;5064436;28;20076;-68
2023/09/24 07:00:25;;;;;;;5.95;1.90;;;;;;;20.36;48.96;102424.72;5068787;28;20116;-69
2023/09/24 07:02:50;;;;;;;6.15;1.70;;;;;;;20.38;48.90;102427.25;5068549;28;20135;-67
2023/09/24 07:05:15;;;;;;;5.28;1.58;;;;;;;20.35;48.97;102430.94;5068700;28;20028;-70
2023/09/24 07:07:41;;;;;;;4.18;1.73;;;;;;;20.34;48.87;102423.94;5068261;28;20050;-68
2023/09/24 07:10:07;;;;;;;3.75;1.52;;;;;;;20.35;49.15;102424.81;5068823;28;20028;-68
2023/09/24 07:12:32;;;;;;;5.40;1.67;;;;;;;20.32;48.99;102425.00;5068641;28;20123;-68
2023/09/24 07:14:57;;;;;;;5.55;1.50;;;;;;;20.33;49.17;102422.25;5067363;28;20062;-67
2023/09/24 07:17:22;;;;;;;4.72;1.48;;;;;;;20.36;48.83;102423.84;5067989;28;20047;-69
2023/09/24 07:19:48;;;;;;;7.50;1.60;;;;;;;20.37;49.15;102428.19;5048164;28;20130;-67
2023/09/24 07:22:13;;;;;;;5.32;1.70;;;;;;;20.37;49.10;102429.03;5047331;28;20392;-67
2023/09/24 07:24:39;;;;;;;5.13;1.80;;;;;;;20.36;49.01;102426.50;5048212;28;20051;-66
2023/09/24 07:27:05;;;;;;;6.95;1.80;;;;;;;20.35;49.32;102433.59;5048509;28;20032;-68
2023/09/24 07:29:30;;;;;;;4.82;1.80;;;;;;;20.36;49.59;102434.44;5030483;28;20060;-66
2023/09/24 07:31:56;;;;;;;6.18;1.77;;;;;;;20.38;49.43;102440.50;5048288;28;20036;-67
2023/09/24 07:34:22;;;;;;;6.35;1.42;;;;;;;20.37;49.58;102439.63;5048367;28;20116;-66
2023/09/24 07:36:47;;;;;;;4.53;1.52;;;;;;;20.39;49.93;102447.47;5048407;28;20033;-66
2023/09/24 07:39:13;;;;;;;5.50;2.10;;;;;;;20.38;49.66;102448.44;5047909;28;20932;-66
2023/09/24 07:41:38;;;;;;;6.53;1.75;;;;;;;20.38;49.66;102445.78;5042381;28;20073;-66
2023/09/24 07:44:03;;;;;;;5.97;1.90;;;;;;;20.42;49.73;102452.56;5028189;28;20037;-66
2023/09/24 07:46:29;;;;;;;4.32;1.60;;;;;;;20.42;49.60;102447.28;5028409;28;20037;-67
2023/09/24 07:48:54;;;;;;;6.15;1.48;;;;;;;20.43;49.72;102455.13;5028427;28;20036;-67
2023/09/24 07:51:22;;;;;;;5.28;1.55;;;;;;;20.42;49.93;102453.41;5028924;28;20034;-67
2023/09/24 07:53:47;;;;;;;6.82;1.75;;;;;;;20.43;49.71;102455.13;5028759;28;20497;-67
2023/09/24 07:56:13;;;;;;;6.43;1.75;;;;;;;20.46;49.49;102460.22;5026704;28;20053;-66
2023/09/24 07:58:40;;;;;;;5.97;1.65;;;;;;;20.46;49.76;102464.66;5028233;28;20496;-66
2023/09/24 08:01:08;;;;;;;5.18;1.40;;;;;;;20.45;49.97;102468.25;5025092;28;20033;-67
2023/09/24 08:03:34;;;;;;;6.15;1.70;;;;;;;20.45;49.64;102463.78;5028353;28;20045;-66
2023/09/24 08:06:00;;;;;;;6.07;1.65;;;;;;;20.47;49.74;102464.56;5028134;28;20033;-65
2023/09/24 08:08:26;;;;;;;5.55;2.00;;;;;;;20.52;49.58;102461.63;5009751;28;20040;-67
2023/09/24 08:10:51;;;;;;;6.68;2.08;;;;;;;20.51;49.75;102459.91;5027770;28;20040;-67
2023/09/24 08:13:19;;;;;;;5.97;1.65;;;;;;;20.52;49.76;102463.41;5024673;28;20112;-66
2023/09/24 08:15:45;;;;;;;5.25;1.70;;;;;;;20.53;49.59;102454.50;5047315;28;20048;-66
2023/09/24 08:18:12;;;;;;;4.72;1.70;;;;;;;20.53;49.77;102459.81;5039727;28;20096;-65
2023/09/24 08:20:38;;;;;;;5.45;1.67;;;;;;;20.50;50.06;102457.38;5027982;28;20486;-67
2023/09/24 08:23:04;;;;;;;5.18;2.08;;;;;;;20.51;49.94;102459.91;5034949;28;20036;-66
2023/09/24 08:25:30;;;;;;;4.40;1.70;;;;;;;20.52;49.94;102461.63;5048154;28;20033;-66
2023/09/24 08:27:56;;;;;;;3.97;1.40;;;;;;;20.49;50.21;102461.81;5009631;28;20087;-65
2023/09/24 08:30:21;;;;;;;4.38;1.70;;;;;;;20.49;50.10;102464.47;5027542;28;20025;-65
2023/09/24 08:32:47;;;;;;;5.18;1.58;;;;;;;20.52;50.00;102460.75;5037629;28;20017;-66
2023/09/24 08:35:12;;;;;;;5.28;1.80;;;;;;;20.50;50.37;102460.00;5027497;28;20025;-66
2023/09/24 08:37:37;;;;;;;4.80;1.75;;;;;;;20.49;50.18;102461.81;5039395;28;20033;-66
2023/09/24 08:40:03;;;;;;;5.25;1.50;;;;;;;20.50;50.18;102462.66;5027365;28;20048;-66
2023/09/24 08:42:31;;;;;;;4.15;1.30;;;;;;;20.48;50.23;102473.34;5021353;28;20056;-67
2023/09/24 08:45:10;;;;;;;4.70;1.60;;;;;;;20.50;50.33;102475.91;5046279;28;20036;-66
2023/09/24 08:47:37;;;;;;;7.18;1.42;;;;;;;20.53;50.04;102465.94;5046931;28;20533;-66
2023/09/24 08:50:04;;;;;;;3.90;1.65;;;;;;;20.54;50.27;102478.25;5063431;28;20090;-65
2023/09/24 08:52:37;;;;;;;4.05;1.73;;;;;;;20.51;50.44;102467.00;5066698;28;20036;-66
2023/09/24 08:55:09;;;;;;;5.72;1.50;;;;;;;20.52;50.53;102472.22;5026771;28;20242;-66
2023/09/24 08:57:38;;;;;;;7.78;2.05;;;;;;;20.53;50.02;102467.75;5047073;28;20037;-66
2023/09/24 09:00:06;;;;;;;4.85;1.23;;;;;;;20.53;50.22;102473.88;5063078;28;20553;-66
2023/09/24 09:02:34;;;;;;;9.07;1.88;;;;;;;20.54;50.38;102477.41;5063048;28;20068;-65
2023/09/24 09:05:00;;;;;;;5.07;1.77;;;;;;;20.52;50.33;102480.16;5046797;28;20055;-66
2023/09/24 09:07:25;;;;;;;4.75;1.50;;;;;;;20.52;50.43;102479.28;5047246;28;20469;-64
2023/09/24 09:09:55;;;;;;;3.70;1.17;;;;;;;20.54;50.80;102478.25;5060824;28;20048;-65
2023/09/24 09:12:22;;;;;;;6.50;1.88;;;;;;;20.54;50.60;102467.66;5050196;28;20044;-65
2023/09/24 09:14:48;;;;;;;5.50;1.50;;;;;;;20.53;50.54;102465.94;5045848;28;20068;-65
2023/09/24 09:17:13;;;;;;;4.90;1.42;;;;;;;20.54;50.54;102461.53;5046283;28;20063;-65
2023/09/24 09:20:05;;;;;;;10.93;1.50;;;;;;;20.55;50.41;102460.56;5047149;28;20591;-65
2023/09/24 09:22:32;;;;;;;6.18;1.60;;;;;;;20.56;50.39;102455.16;5035413;28;20041;-65
2023/09/24 09:25:00;;;;;;;4.93;1.80;;;;;;;20.55;50.71;102458.75;5045914;28;20469;-66
2023/09/24 09:27:30;;;;;;;4.32;1.40;;;;;;;20.53;50.77;102450.06;5028119;28;20497;-64
2023/09/24 09:30:09;;;;;;;7.03;1.73;;;;;;;20.53;50.76;102446.56;5042967;28;20056;-64
2023/09/24 09:32:37;;;;;;;4.43;1.42;;;;;;;20.56;50.57;102433.13;5045795;28;20072;-66
2023/09/24 09:35:03;;;;;;;3.67;1.50;;;;;;;20.54;50.65;102429.75;5059143;28;20035;-66
2023/09/24 09:37:28;;;;;;;3.75;1.10;;;;;;;20.57;50.53;102427.72;5046230;28;20039;-66
2023/09/24 09:39:53;;;;;;;3.00;0.93;;;;;;;20.57;50.53;102424.22;5046231;28;20030;-66
2023/09/24 09:42:21;;;;;;;6.80;1.48;;;;;;;20.59;50.77;102417.03;5035413;28;20061;-65
2023/09/24 09:44:51;;;;;;;5.45;1.15;;;;;;;20.59;50.73;102422.31;5024643;28;20025;-65
2023/09/24 09:47:20;;;;;;;4.45;1.35;;;;;;;20.59;50.73;102425.81;5023629;28;20034;-65
2023/09/24 09:49:59;;;;;;;4.60;1.20;;;;;;;20.58;50.77;102424.09;5039804;28;20029;-66
2023/09/24 09:52:31;;;;;;;5.63;1.50;;;;;;;20.55;50.95;102411.06;5046067;28;20523;-65
2023/09/24 09:55:01;;;;;;;4.93;1.30;;;;;;;20.60;50.88;102419.56;5022547;28;20029;-66
2023/09/24 09:57:30;;;;;;;6.32;1.20;;;;;;;20.59;51.06;102417.88;5022963;28;20037;-66
2023/09/24 09:59:56;;;;;;;4.47;1.42;;;;;;;20.65;50.45;102420.13;5026312;28;20033;-66
2023/09/24 10:02:22;;;;;;;4.40;1.13;;;;;;;20.64;50.65;102412.28;5026314;28;20030;-66
2023/09/24 10:04:48;;;;;;;5.43;1.60;;;;;;;20.67;50.60;102420.03;5026530;28;20037;-67
2023/09/24 10:07:14;;;;;;;3.33;1.15;;;;;;;20.67;50.50;102406.78;5026169;28;20041;-67
2023/09/24 10:09:40;;;;;;;5.18;1.23;;;;;;;20.68;50.58;102403.19;5026157;28;20036;-64
2023/09/24 10:12:07;;;;;;;3.67;1.25;;;;;;;20.68;50.38;102397.91;5026117;28;20397;-65
2023/09/24 10:14:37;;;;;;;3.53;1.17;;;;;;;20.68;50.72;102391.72;5026388;28;20030;-64
2023/09/24 10:17:23;;;;;;;5.20;1.35;;;;;;;20.63;50.72;102384.06;5042384;28;20029;-65
2023/09/24 10:19:53;;;;;;;3.70;1.40;;;;;;;20.69;50.53;102388.16;5038628;28;20410;-66
2023/09/24 10:22:29;;;;;;;5.95;1.30;;;;;;;20.67;50.74;102390.06;5043856;28;20091;-66
2023/09/24 10:24:55;;;;;;;3.67;1.10;;;;;;;20.67;50.77;102382.94;5036192;28;20033;-66
2023/09/24 10:27:31;;;;;;;4.75;1.30;;;;;;;20.64;50.80;102384.00;5026127;28;20100;-65
2023/09/24 10:29:56;;;;;;;4.80;1.30;;;;;;;20.66;50.72;102391.84;5026240;28;20029;-66
2023/09/24 10:32:24;;;;;;;3.10;1.08;;;;;;;20.64;50.78;102386.66;5026079;28;20026;-66
2023/09/24 10:34:55;;;;;;;5.47;1.40;;;;;;;20.65;50.60;102391.00;5005024;28;20383;-65
2023/09/24 10:37:25;;;;;;;5.55;1.25;;;;;;;20.66;50.43;102389.19;5024432;28;20449;-65
2023/09/24 10:40:04;;;;;;;5.90;1.25;;;;;;;20.68;50.54;102391.72;5026110;28;20144;-65
2023/09/24 10:42:33;;;;;;;3.45;1.45;;;;;;;20.68;50.52;102383.78;5038082;28;20049;-65
2023/09/24 10:45:07;;;;;;;4.22;1.17;;;;;;;20.66;50.25;102386.53;5046083;28;20021;-65
2023/09/24 10:47:38;;;;;;;;;;;;;;;20.73;50.39;102385.19;5038345;28;20055;-65
2023/09/24 10:50:23;;;;;;;3.63;1.02;;;;;;;20.73;50.49;102379.88;5045997;28;19935;-66
2023/09/24 10:52:59;;;;;;;3.97;1.15;;;;;;;20.70;50.54;102377.44;5045230;28;20112;-65
2023/09/24 10:55:30;;;;;;;4.68;1.40;;;;;;;20.70;50.54;102376.59;5045696;28;20065;-67
2023/09/24 10:57:57;;;;;;;3.33;1.00;;;;;;;20.71;50.18;102378.28;5045371;28;20041;-65
2023/09/24 11:00:25;;;;;;;3.28;1.20;;;;;;;20.67;50.41;102374.16;5045213;28;20127;-67
2023/09/24 11:02:57;;;;;;;3.95;1.17;;;;;;;20.67;50.57;102382.13;5045554;28;20094;-67
2023/09/24 11:05:23;;;;;;;4.50;1.48;;;;;;;20.68;50.38;102379.34;5045986;28;20470;-66
2023/09/24 11:07:49;;;;;;;4.97;1.20;;;;;;;20.64;50.47;102372.56;5052007;28;20025;-67
2023/09/24 11:10:20;;;;;;;3.13;1.20;;;;;;;20.67;50.56;102372.34;5058452;28;20024;-66
2023/09/24 11:12:48;;;;;;;3.85;1.25;;;;;;;20.63;50.17;102369.03;5069011;28;20043;-66
2023/09/24 11:15:14;;;;;;;2.97;1.02;;;;;;;20.64;50.29;102367.25;5069291;28;20503;-66
2023/09/24 11:17:39;;;;;;;2.85;0.93;;;;;;;20.66;50.43;102362.69;5069474;28;20037;-66
2023/09/24 11:20:08;;;;;;;2.92;1.00;;;;;;;20.68;50.53;102373.19;5062132;28;20040;-67
2023/09/24 11:22:33;;;;;;;3.10;1.10;;;;;;;20.69;50.52;102367.78;5053239;28;20043;-68